sensor_id;sensor_type;location;lat;lon;timestamp;P1;P2;P0
57373;PMS7003;43964;53.890;25.340;2024-03-17T00:00:13;0.3;0;0
57373;PMS7003;43964;53.890;25.340;2024-03-17T00:04:33;0.3;0;0
57373;PMS7003;43964;53.890;25.340;2024-03-17T00:09:35;0.6;0.2;0
57373;PMS7003;43964;53.890;25.340;2024-03-17T00:15:15;0;0;0
57373;PMS7003;43964;53.890;25.340;2024-03-17T00:20:23;0.5;0.5;0
57373;PMS7003;43964;53.890;25.340;2024-03-17T00:25:09;0.7;0.7;0
57373;PMS7003;43964;53.890;25.340;2024-03-17T00:30:21;0.8;0.3;0
57373;PMS7003;43964;53.890;25.340;2024-03-17T00:34:51;0.8;0.3;0
57373;PMS7003;43964;53.890;25.340;2024-03-17T00:40:01;0.3;0.3;0
57373;PMS7003;43964;53.890;25.340;2024-03-17T00:44:51;0.7;0.7;0
57373;PMS7003;43964;53.890;25.340;2024-03-17T00:49:41;0.8;0.5;0.3
57373;PMS7003;43964;53.890;25.340;2024-03-17T00:54:33;0.6;0.6;0.2
57373;PMS7003;43964;53.890;25.340;2024-03-17T00:59:33;1.6;0.4;0.2
57373;PMS7003;43964;53.890;25.340;2024-03-17T01:04:33;1;0.4;0
57373;PMS7003;43964;53.890;25.340;2024-03-17T01:10:13;0.6;0.2;0
57373;PMS7003;43964;53.890;25.340;2024-03-17T01:15:22;1;0.7;0
57373;PMS7003;43964;53.890;25.340;2024-03-17T01:19:41;1;0.7;0
57373;PMS7003;43964;53.890;25.340;2024-03-17T01:25:21;0.8;0.4;0
57373;PMS7003;43964;53.890;25.340;2024-03-17T01:30:01;0.8;0.4;0
57373;PMS7003;43964;53.890;25.340;2024-03-17T01:34:53;1.4;1;0.2
57373;PMS7003;43964;53.890;25.340;2024-03-17T01:39:53;0.6;0.6;0
57373;PMS7003;43964;53.890;25.340;2024-03-17T01:44:35;1.8;0.6;0
57373;PMS7003;43964;53.890;25.340;2024-03-17T01:49:53;2.8;2;0.6
57373;PMS7003;43964;53.890;25.340;2024-03-17T01:55:23;1.4;1.2;0.4
57373;PMS7003;43964;53.890;25.340;2024-03-17T01:59:41;1.4;1.2;0.4
57373;PMS7003;43964;53.890;25.340;2024-03-17T02:05:01;2.8;1.8;0.2
57373;PMS7003;43964;53.890;25.340;2024-03-17T02:09:57;2;1.4;0
57373;PMS7003;43964;53.890;25.340;2024-03-17T02:15:09;1.8;1.4;0.2
57373;PMS7003;43964;53.890;25.340;2024-03-17T02:19:51;1.8;1.4;0.2
57373;PMS7003;43964;53.890;25.340;2024-03-17T02:24:41;1.6;0.4;0
57373;PMS7003;43964;53.890;25.340;2024-03-17T02:29:41;1;0.4;0
57373;PMS7003;43964;53.890;25.340;2024-03-17T02:34:49;2;1.2;0.2
57373;PMS7003;43964;53.890;25.340;2024-03-17T02:40:13;1.4;1;0.4
57373;PMS7003;43964;53.890;25.340;2024-03-17T02:44:34;1.4;1;0.4
57373;PMS7003;43964;53.890;25.340;2024-03-17T02:50:07;0.7;0;0
57373;PMS7003;43964;53.890;25.340;2024-03-17T02:54:41;0.7;0;0
57373;PMS7003;43964;53.890;25.340;2024-03-17T03:00:23;0;0;0
57373;PMS7003;43964;53.890;25.340;2024-03-17T03:05:09;0;0;0
57373;PMS7003;43964;53.890;25.340;2024-03-17T03:10:13;0;0;0
57373;PMS7003;43964;53.890;25.340;2024-03-17T03:14:53;0;0;0
57373;PMS7003;43964;53.890;25.340;2024-03-17T03:20:03;0;0;0
57373;PMS7003;43964;53.890;25.340;2024-03-17T03:25:23;0;0;0
57373;PMS7003;43964;53.890;25.340;2024-03-17T03:30:21;0;0;0
57373;PMS7003;43964;53.890;25.340;2024-03-17T03:34:33;0;0;0
57373;PMS7003;43964;53.890;25.340;2024-03-17T03:40:21;0;0;0
57373;PMS7003;43964;53.890;25.340;2024-03-17T03:45:21;0;0;0
57373;PMS7003;43964;53.890;25.340;2024-03-17T03:50:07;0;0;0
57373;PMS7003;43964;53.890;25.340;2024-03-17T03:55:23;0;0;0
57373;PMS7003;43964;53.890;25.340;2024-03-17T03:59:41;0;0;0
57373;PMS7003;43964;53.890;25.340;2024-03-17T04:05:11;0;0;0
57373;PMS7003;43964;53.890;25.340;2024-03-17T04:09:47;0;0;0
57373;PMS7003;43964;53.890;25.340;2024-03-17T04:14:33;0;0;0
57373;PMS7003;43964;53.890;25.340;2024-03-17T04:19:55;0;0;0
57373;PMS7003;43964;53.890;25.340;2024-03-17T04:25:01;0;0;0
57373;PMS7003;43964;53.890;25.340;2024-03-17T04:29:33;0;0;0
57373;PMS7003;43964;53.890;25.340;2024-03-17T04:35:21;0;0;0
57373;PMS7003;43964;53.890;25.340;2024-03-17T04:39:35;0;0;0
57373;PMS7003;43964;53.890;25.340;2024-03-17T04:44:47;0;0;0
57373;PMS7003;43964;53.890;25.340;2024-03-17T04:49:51;0;0;0
57373;PMS7003;43964;53.890;25.340;2024-03-17T04:54:35;0.5;0;0
57373;PMS7003;43964;53.890;25.340;2024-03-17T05:00:10;0;0;0
57373;PMS7003;43964;53.890;25.340;2024-03-17T05:04:45;0;0;0
57373;PMS7003;43964;53.890;25.340;2024-03-17T05:10:11;0;0;0
57373;PMS7003;43964;53.890;25.340;2024-03-17T05:15:01;0;0;0
57373;PMS7003;43964;53.890;25.340;2024-03-17T05:20:21;0;0;0
57373;PMS7003;43964;53.890;25.340;2024-03-17T05:24:57;0;0;0
57373;PMS7003;43964;53.890;25.340;2024-03-17T05:30:11;0;0;0
57373;PMS7003;43964;53.890;25.340;2024-03-17T05:34:57;0;0;0
57373;PMS7003;43964;53.890;25.340;2024-03-17T05:39:45;0;0;0
57373;PMS7003;43964;53.890;25.340;2024-03-17T05:44:47;0;0;0
57373;PMS7003;43964;53.890;25.340;2024-03-17T05:49:33;0;0;0
57373;PMS7003;43964;53.890;25.340;2024-03-17T05:54:33;0.4;0.2;0
57373;PMS7003;43964;53.890;25.340;2024-03-17T06:00:21;0;0;0
57373;PMS7003;43964;53.890;25.340;2024-03-17T06:05:09;0;0;0
57373;PMS7003;43964;53.890;25.340;2024-03-17T06:10:23;0;0;0
57373;PMS7003;43964;53.890;25.340;2024-03-17T06:15:02;0;0;0
57373;PMS7003;43964;53.890;25.340;2024-03-17T06:19:49;0;0;0
57373;PMS7003;43964;53.890;25.340;2024-03-17T06:24:33;0;0;0
57373;PMS7003;43964;53.890;25.340;2024-03-17T06:30:04;0;0;0
57373;PMS7003;43964;53.890;25.340;2024-03-17T06:34:47;0;0;0
57373;PMS7003;43964;53.890;25.340;2024-03-17T06:39:45;0;0;0
57373;PMS7003;43964;53.890;25.340;2024-03-17T06:44:43;0;0;0
57373;PMS7003;43964;53.890;25.340;2024-03-17T06:50:09;0;0;0
57373;PMS7003;43964;53.890;25.340;2024-03-17T06:55:23;0.2;0;0
57373;PMS7003;43964;53.890;25.340;2024-03-17T06:59:41;0.2;0;0
57373;PMS7003;43964;53.890;25.340;2024-03-17T07:05:13;0;0;0
57373;PMS7003;43964;53.890;25.340;2024-03-17T07:09:33;0;0;0
57373;PMS7003;43964;53.890;25.340;2024-03-17T07:15:13;0;0;0
57373;PMS7003;43964;53.890;25.340;2024-03-17T07:19:59;0;0;0
57373;PMS7003;43964;53.890;25.340;2024-03-17T07:24:41;0;0;0
57373;PMS7003;43964;53.890;25.340;2024-03-17T07:29:39;0;0;0
57373;PMS7003;43964;53.890;25.340;2024-03-17T07:34:33;0;0;0
57373;PMS7003;43964;53.890;25.340;2024-03-17T07:40:03;0;0;0
57373;PMS7003;43964;53.890;25.340;2024-03-17T07:45:23;0;0;0
57373;PMS7003;43964;53.890;25.340;2024-03-17T07:50:15;0;0;0
57373;PMS7003;43964;53.890;25.340;2024-03-17T07:55:01;0;0;0
57373;PMS7003;43964;53.890;25.340;2024-03-17T08:00:01;0;0;0
57373;PMS7003;43964;53.890;25.340;2024-03-17T08:05:21;0;0;0
57373;PMS7003;43964;53.890;25.340;2024-03-17T08:10:05;0;0;0
57373;PMS7003;43964;53.890;25.340;2024-03-17T08:14:33;0;0;0
57373;PMS7003;43964;53.890;25.340;2024-03-17T08:20:01;0;0;0
57373;PMS7003;43964;53.890;25.340;2024-03-17T08:24:45;0;0;0
57373;PMS7003;43964;53.890;25.340;2024-03-17T08:30:21;0;0;0
57373;PMS7003;43964;53.890;25.340;2024-03-17T08:34:33;0;0;0
57373;PMS7003;43964;53.890;25.340;2024-03-17T08:40:21;0;0;0
57373;PMS7003;43964;53.890;25.340;2024-03-17T08:44:33;0;0;0
57373;PMS7003;43964;53.890;25.340;2024-03-17T08:50:01;0;0;0
57373;PMS7003;43964;53.890;25.340;2024-03-17T08:54:41;0;0;0
57373;PMS7003;43964;53.890;25.340;2024-03-17T08:59:41;0;0;0
57373;PMS7003;43964;53.890;25.340;2024-03-17T09:04:33;0;0;0
57373;PMS7003;43964;53.890;25.340;2024-03-17T09:09:46;0;0;0
57373;PMS7003;43964;53.890;25.340;2024-03-17T09:15:15;0;0;0
57373;PMS7003;43964;53.890;25.340;2024-03-17T09:19:49;0;0;0
57373;PMS7003;43964;53.890;25.340;2024-03-17T09:25:22;0;0;0
57373;PMS7003;43964;53.890;25.340;2024-03-17T09:29:41;0;0;0
57373;PMS7003;43964;53.890;25.340;2024-03-17T09:35:21;0;0;0
57373;PMS7003;43964;53.890;25.340;2024-03-17T09:39:52;0;0;0
57373;PMS7003;43964;53.890;25.340;2024-03-17T09:44:35;0;0;0
57373;PMS7003;43964;53.890;25.340;2024-03-17T09:49:33;0;0;0
57373;PMS7003;43964;53.890;25.340;2024-03-17T09:54:55;0;0;0
57373;PMS7003;43964;53.890;25.340;2024-03-17T10:00:21;0;0;0
57373;PMS7003;43964;53.890;25.340;2024-03-17T10:05:22;0;0;0
57373;PMS7003;43964;53.890;25.340;2024-03-17T10:10:06;0;0;0
57373;PMS7003;43964;53.890;25.340;2024-03-17T10:15:21;0;0;0
57373;PMS7003;43964;53.890;25.340;2024-03-17T10:20:23;0;0;0
57373;PMS7003;43964;53.890;25.340;2024-03-17T10:25:09;0;0;0
57373;PMS7003;43964;53.890;25.340;2024-03-17T10:30:20;0;0;0
57373;PMS7003;43964;53.890;25.340;2024-03-17T10:34:33;0;0;0
57373;PMS7003;43964;53.890;25.340;2024-03-17T10:39:42;0;0;0
57373;PMS7003;43964;53.890;25.340;2024-03-17T10:44:41;0;0;0
57373;PMS7003;43964;53.890;25.340;2024-03-17T10:49:34;0;0;0
57373;PMS7003;43964;53.890;25.340;2024-03-17T10:54:48;0;0;0
57373;PMS7003;43964;53.890;25.340;2024-03-17T11:00:22;0;0;0
57373;PMS7003;43964;53.890;25.340;2024-03-17T11:05:12;0;0;0
57373;PMS7003;43964;53.890;25.340;2024-03-17T11:10:09;0;0;0
57373;PMS7003;43964;53.890;25.340;2024-03-17T11:15:39;0;0;0
57373;PMS7003;43964;53.890;25.340;2024-03-17T11:20:08;0;0;0
57373;PMS7003;43964;53.890;25.340;2024-03-17T11:24:45;0;0;0
57373;PMS7003;43964;53.890;25.340;2024-03-17T11:29:51;0;0;0
57373;PMS7003;43964;53.890;25.340;2024-03-17T11:35:22;0;0;0
57373;PMS7003;43964;53.890;25.340;2024-03-17T11:40:23;0;0;0
57373;PMS7003;43964;53.890;25.340;2024-03-17T11:44:58;0;0;0
57373;PMS7003;43964;53.890;25.340;2024-03-17T11:50:22;0;0;0
57373;PMS7003;43964;53.890;25.340;2024-03-17T11:55:19;0;0;0
57373;PMS7003;43964;53.890;25.340;2024-03-17T12:00:15;0;0;0
57373;PMS7003;43964;53.890;25.340;2024-03-17T12:05:21;0;0;0
57373;PMS7003;43964;53.890;25.340;2024-03-17T12:09:33;0;0;0
57373;PMS7003;43964;53.890;25.340;2024-03-17T12:14:40;0;0;0
57373;PMS7003;43964;53.890;25.340;2024-03-17T12:19:44;0;0;0
57373;PMS7003;43964;53.890;25.340;2024-03-17T12:24:34;0;0;0
57373;PMS7003;43964;53.890;25.340;2024-03-17T12:29:41;0;0;0
57373;PMS7003;43964;53.890;25.340;2024-03-17T12:34:35;0;0;0
57373;PMS7003;43964;53.890;25.340;2024-03-17T12:39:34;0;0;0
57373;PMS7003;43964;53.890;25.340;2024-03-17T12:45:14;0;0;0
57373;PMS7003;43964;53.890;25.340;2024-03-17T12:49:44;0;0;0
57373;PMS7003;43964;53.890;25.340;2024-03-17T12:54:58;0;0;0
57373;PMS7003;43964;53.890;25.340;2024-03-17T12:59:38;0;0;0
57373;PMS7003;43964;53.890;25.340;2024-03-17T13:05:05;0;0;0
57373;PMS7003;43964;53.890;25.340;2024-03-17T13:10:04;0;0;0
57373;PMS7003;43964;53.890;25.340;2024-03-17T13:14:53;0;0;0
57373;PMS7003;43964;53.890;25.340;2024-03-17T13:20:12;0;0;0
57373;PMS7003;43964;53.890;25.340;2024-03-17T13:25:08;0;0;0
57373;PMS7003;43964;53.890;25.340;2024-03-17T13:30:22;0;0;0
57373;PMS7003;43964;53.890;25.340;2024-03-17T13:34:52;0;0;0
57373;PMS7003;43964;53.890;25.340;2024-03-17T13:40:12;0;0;0
57373;PMS7003;43964;53.890;25.340;2024-03-17T13:44:55;0;0;0
57373;PMS7003;43964;53.890;25.340;2024-03-17T13:49:58;0;0;0
57373;PMS7003;43964;53.890;25.340;2024-03-17T13:54:56;0;0;0
57373;PMS7003;43964;53.890;25.340;2024-03-17T13:59:44;0;0;0
57373;PMS7003;43964;53.890;25.340;2024-03-17T14:04:56;0;0;0
57373;PMS7003;43964;53.890;25.340;2024-03-17T14:09:40;0;0;0
57373;PMS7003;43964;53.890;25.340;2024-03-17T14:14:58;0;0;0
57373;PMS7003;43964;53.890;25.340;2024-03-17T14:20:22;0;0;0
57373;PMS7003;43964;53.890;25.340;2024-03-17T14:25:22;0;0;0
57373;PMS7003;43964;53.890;25.340;2024-03-17T14:30:20;0;0;0
57373;PMS7003;43964;53.890;25.340;2024-03-17T14:35:20;0;0;0
57373;PMS7003;43964;53.890;25.340;2024-03-17T14:40:22;0;0;0
57373;PMS7003;43964;53.890;25.340;2024-03-17T14:45:10;0;0;0
57373;PMS7003;43964;53.890;25.340;2024-03-17T14:49:40;0;0;0
57373;PMS7003;43964;53.890;25.340;2024-03-17T14:54:54;0;0;0
57373;PMS7003;43964;53.890;25.340;2024-03-17T14:59:52;0;0;0
57373;PMS7003;43964;53.890;25.340;2024-03-17T15:05:20;0;0;0
57373;PMS7003;43964;53.890;25.340;2024-03-17T15:09:34;0;0;0
57373;PMS7003;43964;53.890;25.340;2024-03-17T15:15:20;0;0;0
57373;PMS7003;43964;53.890;25.340;2024-03-17T15:19:40;0;0;0
57373;PMS7003;43964;53.890;25.340;2024-03-17T15:25:08;0;0;0
57373;PMS7003;43964;53.890;25.340;2024-03-17T15:29:40;0;0;0
57373;PMS7003;43964;53.890;25.340;2024-03-17T15:34:34;0;0;0
57373;PMS7003;43964;53.890;25.340;2024-03-17T15:39:56;0;0;0
57373;PMS7003;43964;53.890;25.340;2024-03-17T15:44:42;0;0;0
57373;PMS7003;43964;53.890;25.340;2024-03-17T15:50:08;0;0;0
57373;PMS7003;43964;53.890;25.340;2024-03-17T15:55:22;0.3;0;0
57373;PMS7003;43964;53.890;25.340;2024-03-17T16:00:22;0;0;0
57373;PMS7003;43964;53.890;25.340;2024-03-17T16:04:40;0;0;0
57373;PMS7003;43964;53.890;25.340;2024-03-17T16:10:04;0.5;0.3;0
57373;PMS7003;43964;53.890;25.340;2024-03-17T16:15:22;0;0;0
57373;PMS7003;43964;53.890;25.340;2024-03-17T16:20:22;0;0;0
57373;PMS7003;43964;53.890;25.340;2024-03-17T16:24:54;0;0;0
57373;PMS7003;43964;53.890;25.340;2024-03-17T16:30:04;0.2;0;0
57373;PMS7003;43964;53.890;25.340;2024-03-17T16:34:54;0;0;0
57373;PMS7003;43964;53.890;25.340;2024-03-17T16:40:22;0;0;0
57373;PMS7003;43964;53.890;25.340;2024-03-17T16:44:37;0;0;0
57373;PMS7003;43964;53.890;25.340;2024-03-17T16:50:22;0;0;0
57373;PMS7003;43964;53.890;25.340;2024-03-17T16:54:50;0;0;0
57373;PMS7003;43964;53.890;25.340;2024-03-17T17:00:08;0;0;0
57373;PMS7003;43964;53.890;25.340;2024-03-17T17:04:58;0;0;0
57373;PMS7003;43964;53.890;25.340;2024-03-17T17:09:42;0;0;0
57373;PMS7003;43964;53.890;25.340;2024-03-17T17:14:34;0;0;0
57373;PMS7003;43964;53.890;25.340;2024-03-17T17:19:34;0;0;0
57373;PMS7003;43964;53.890;25.340;2024-03-17T17:24:54;0;0;0
57373;PMS7003;43964;53.890;25.340;2024-03-17T17:29:34;0;0;0
57373;PMS7003;43964;53.890;25.340;2024-03-17T17:35:22;0;0;0
57373;PMS7003;43964;53.890;25.340;2024-03-17T17:39:34;0;0;0
57373;PMS7003;43964;53.890;25.340;2024-03-17T17:45:22;0.2;0;0
57373;PMS7003;43964;53.890;25.340;2024-03-17T17:50:08;0.8;0.4;0
57373;PMS7003;43964;53.890;25.340;2024-03-17T17:55:04;0.8;0.4;0
57373;PMS7003;43964;53.890;25.340;2024-03-17T17:59:54;0.2;0;0
57373;PMS7003;43964;53.890;25.340;2024-03-17T18:04:56;0.4;0;0
57373;PMS7003;43964;53.890;25.340;2024-03-17T18:10:22;0.2;0;0
57373;PMS7003;43964;53.890;25.340;2024-03-17T18:15:22;0.2;0;0
57373;PMS7003;43964;53.890;25.340;2024-03-17T18:19:58;0.2;0;0
57373;PMS7003;43964;53.890;25.340;2024-03-17T18:25:22;0;0;0
57373;PMS7003;43964;53.890;25.340;2024-03-17T18:30:22;0;0;0
57373;PMS7003;43964;53.890;25.340;2024-03-17T18:35:08;0.3;0;0
57373;PMS7003;43964;53.890;25.340;2024-03-17T18:40:22;0;0;0
57373;PMS7003;43964;53.890;25.340;2024-03-17T18:44:50;0;0;0
57373;PMS7003;43964;53.890;25.340;2024-03-17T18:49:42;0;0;0
57373;PMS7003;43964;53.890;25.340;2024-03-17T18:54:56;0;0;0
57373;PMS7003;43964;53.890;25.340;2024-03-17T18:59:34;0;0;0
57373;PMS7003;43964;53.890;25.340;2024-03-17T19:05:12;0;0;0
57373;PMS7003;43964;53.890;25.340;2024-03-17T19:10:04;0;0;0
57373;PMS7003;43964;53.890;25.340;2024-03-17T19:14:50;0;0;0
57373;PMS7003;43964;53.890;25.340;2024-03-17T19:20:22;0;0;0
57373;PMS7003;43964;53.890;25.340;2024-03-17T19:25:08;0;0;0
57373;PMS7003;43964;53.890;25.340;2024-03-17T19:29:42;0;0;0
57373;PMS7003;43964;53.890;25.340;2024-03-17T19:34:46;0;0;0
57373;PMS7003;43964;53.890;25.340;2024-03-17T19:40:04;0;0;0
57373;PMS7003;43964;53.890;25.340;2024-03-17T19:45:12;0;0;0
57373;PMS7003;43964;53.890;25.340;2024-03-17T19:49:34;0;0;0
57373;PMS7003;43964;53.890;25.340;2024-03-17T19:55:12;0;0;0
57373;PMS7003;43964;53.890;25.340;2024-03-17T20:00:08;0;0;0
57373;PMS7003;43964;53.890;25.340;2024-03-17T20:05:22;0;0;0
57373;PMS7003;43964;53.890;25.340;2024-03-17T20:10:08;0;0;0
57373;PMS7003;43964;53.890;25.340;2024-03-17T20:15:22;0;0;0
57373;PMS7003;43964;53.890;25.340;2024-03-17T20:19:34;0;0;0
57373;PMS7003;43964;53.890;25.340;2024-03-17T20:24:54;0;0;0
57373;PMS7003;43964;53.890;25.340;2024-03-17T20:29:42;0;0;0
57373;PMS7003;43964;53.890;25.340;2024-03-17T20:34:52;0;0;0
57373;PMS7003;43964;53.890;25.340;2024-03-17T20:39:42;0;0;0
57373;PMS7003;43964;53.890;25.340;2024-03-17T20:45:04;0;0;0
57373;PMS7003;43964;53.890;25.340;2024-03-17T20:50:22;0;0;0
57373;PMS7003;43964;53.890;25.340;2024-03-17T20:55:04;0;0;0
57373;PMS7003;43964;53.890;25.340;2024-03-17T21:00:08;0;0;0
57373;PMS7003;43964;53.890;25.340;2024-03-17T21:04:42;0;0;0
57373;PMS7003;43964;53.890;25.340;2024-03-17T21:09:54;0;0;0
57373;PMS7003;43964;53.890;25.340;2024-03-17T21:15:04;0;0;0
57373;PMS7003;43964;53.890;25.340;2024-03-17T21:20:12;0;0;0
57373;PMS7003;43964;53.890;25.340;2024-03-17T21:25:04;0;0;0
57373;PMS7003;43964;53.890;25.340;2024-03-17T21:30:04;0;0;0
57373;PMS7003;43964;53.890;25.340;2024-03-17T21:35:08;0;0;0
57373;PMS7003;43964;53.890;25.340;2024-03-17T21:40:22;0;0;0
57373;PMS7003;43964;53.890;25.340;2024-03-17T21:44:34;0;0;0
57373;PMS7003;43964;53.890;25.340;2024-03-17T21:50:12;0;0;0
57373;PMS7003;43964;53.890;25.340;2024-03-17T21:54:50;0;0;0
57373;PMS7003;43964;53.890;25.340;2024-03-17T21:59:52;0.2;0;0
57373;PMS7003;43964;53.890;25.340;2024-03-17T22:05:12;0;0;0
57373;PMS7003;43964;53.890;25.340;2024-03-17T22:09:34;0;0;0
57373;PMS7003;43964;53.890;25.340;2024-03-17T22:14:58;0;0;0
57373;PMS7003;43964;53.890;25.340;2024-03-17T22:19:51;0;0;0
57373;PMS7003;43964;53.890;25.340;2024-03-17T22:25:08;0;0;0
57373;PMS7003;43964;53.890;25.340;2024-03-17T22:30:22;0;0;0
57373;PMS7003;43964;53.890;25.340;2024-03-17T22:35:22;0;0;0
57373;PMS7003;43964;53.890;25.340;2024-03-17T22:39:34;0;0;0
57373;PMS7003;43964;53.890;25.340;2024-03-17T22:45:10;0;0;0
57373;PMS7003;43964;53.890;25.340;2024-03-17T22:50:22;0;0;0
57373;PMS7003;43964;53.890;25.340;2024-03-17T22:55:12;0;0;0
57373;PMS7003;43964;53.890;25.340;2024-03-17T22:59:46;0;0;0
57373;PMS7003;43964;53.890;25.340;2024-03-17T23:05:04;0;0;0
57373;PMS7003;43964;53.890;25.340;2024-03-17T23:10:00;0;0;0
57373;PMS7003;43964;53.890;25.340;2024-03-17T23:15:22;0;0;0
57373;PMS7003;43964;53.890;25.340;2024-03-17T23:20:00;0;0;0
57373;PMS7003;43964;53.890;25.340;2024-03-17T23:25:22;0;0;0
57373;PMS7003;43964;53.890;25.340;2024-03-17T23:29:34;0;0;0
57373;PMS7003;43964;53.890;25.340;2024-03-17T23:35:06;0;0;0
57373;PMS7003;43964;53.890;25.340;2024-03-17T23:39:34;0;0;0
57373;PMS7003;43964;53.890;25.340;2024-03-17T23:44:34;0;0;0
57373;PMS7003;43964;53.890;25.340;2024-03-17T23:49:58;0;0;0
57373;PMS7003;43964;53.890;25.340;2024-03-17T23:54:42;0;0;0
57373;PMS7003;43964;53.890;25.340;2024-03-17T23:59:52;0;0;0
